sensor_id;sensor_type;location;lat;lon;timestamp;pressure;altitude;pressure_sealevel;temperature;humidity
13476;BME280;6810;63.824;20.288;2024-03-23T00:55:18;99085.44;;;2.75;73.54
13476;BME280;6810;63.824;20.288;2024-03-23T00:58:05;99089.78;;;2.76;74.62
13476;BME280;6810;63.824;20.288;2024-03-23T01:00:51;99088.00;;;2.76;74.41
13476;BME280;6810;63.824;20.288;2024-03-23T01:03:37;99089.78;;;2.76;73.85
13476;BME280;6810;63.824;20.288;2024-03-23T01:06:03;99090.63;;;2.76;74.97
13476;BME280;6810;63.824;20.288;2024-03-23T01:08:30;99086.28;;;2.75;74.84
13476;BME280;6810;63.824;20.288;2024-03-23T01:10:57;99091.47;;;2.77;74.76
13476;BME280;6810;63.824;20.288;2024-03-23T01:13:43;99089.00;;;2.74;74.82
13476;BME280;6810;63.824;20.288;2024-03-23T01:16:29;99094.09;;;2.77;73.81
13476;BME280;6810;63.824;20.288;2024-03-23T01:19:15;99084.59;;;2.74;73.77
13476;BME280;6810;63.824;20.288;2024-03-23T01:22:01;99092.31;;;2.77;74.32
13476;BME280;6810;63.824;20.288;2024-03-23T01:24:47;99085.44;;;2.75;74.60
13476;BME280;6810;63.824;20.288;2024-03-23T01:27:34;99088.81;;;2.77;73.65
13476;BME280;6810;63.824;20.288;2024-03-23T01:30:20;99091.38;;;2.78;74.89
13476;BME280;6810;63.824;20.288;2024-03-23T01:33:06;99094.00;;;2.78;73.74
13476;BME280;6810;63.824;20.288;2024-03-23T01:35:52;99074.41;;;2.68;73.86
13476;BME280;6810;63.824;20.288;2024-03-23T01:38:38;99092.31;;;2.77;73.75
13476;BME280;6810;63.824;20.288;2024-03-23T01:41:24;99015.78;;;2.34;74.00
13476;BME280;6810;63.824;20.288;2024-03-23T01:44:10;99091.38;;;2.78;73.71
13476;BME280;6810;63.824;20.288;2024-03-23T01:46:56;99087.06;;;2.77;74.64
13476;BME280;6810;63.824;20.288;2024-03-23T01:49:43;99093.09;;;2.79;74.45
13476;BME280;6810;63.824;20.288;2024-03-23T01:52:29;99013.31;;;2.31;73.87
13476;BME280;6810;63.824;20.288;2024-03-23T01:55:15;99088.81;;;2.77;74.52
13476;BME280;6810;63.824;20.288;2024-03-23T01:58:05;99087.84;;;2.79;74.96
13476;BME280;6810;63.824;20.288;2024-03-23T02:00:31;99081.72;;;2.79;74.96
13476;BME280;6810;63.824;20.288;2024-03-23T02:03:28;99089.59;;;2.79;73.87
13476;BME280;6810;63.824;20.288;2024-03-23T02:06:13;99089.59;;;2.79;73.57
13476;BME280;6810;63.824;20.288;2024-03-23T02:09:00;99071.59;;;2.71;74.16
13476;BME280;6810;63.824;20.288;2024-03-23T02:11:46;99092.22;;;2.79;74.29
13476;BME280;6810;63.824;20.288;2024-03-23T02:14:12;99086.13;;;2.78;73.83
13476;BME280;6810;63.824;20.288;2024-03-23T02:16:39;99084.34;;;2.79;73.73
13476;BME280;6810;63.824;20.288;2024-03-23T02:19:05;99080.84;;;2.78;74.32
13476;BME280;6810;63.824;20.288;2024-03-23T02:21:31;99067.44;;;2.67;74.01
13476;BME280;6810;63.824;20.288;2024-03-23T02:23:59;99075.19;;;2.70;74.09
13476;BME280;6810;63.824;20.288;2024-03-23T02:26:25;99083.47;;;2.78;74.42
13476;BME280;6810;63.824;20.288;2024-03-23T02:28:52;99078.47;;;2.74;74.71
13476;BME280;6810;63.824;20.288;2024-03-23T02:31:18;99082.66;;;2.78;74.22
13476;BME280;6810;63.824;20.288;2024-03-23T02:33:44;99084.44;;;2.77;74.79
13476;BME280;6810;63.824;20.288;2024-03-23T02:36:10;99088.75;;;2.78;74.40
13476;BME280;6810;63.824;20.288;2024-03-23T02:38:56;99082.66;;;2.78;74.17
13476;BME280;6810;63.824;20.288;2024-03-23T02:41:42;99000.50;;;2.25;73.94
13476;BME280;6810;63.824;20.288;2024-03-23T02:44:28;99076.00;;;2.71;73.97
13476;BME280;6810;63.824;20.288;2024-03-23T02:47:14;99069.66;;;2.75;73.78
13476;BME280;6810;63.824;20.288;2024-03-23T02:50:00;99084.44;;;2.77;74.53
13476;BME280;6810;63.824;20.288;2024-03-23T02:52:47;99088.81;;;2.77;74.11
13476;BME280;6810;63.824;20.288;2024-03-23T02:55:33;99087.13;;;2.76;74.33
13476;BME280;6810;63.824;20.288;2024-03-23T02:58:19;99087.13;;;2.76;74.89
13476;BME280;6810;63.824;20.288;2024-03-23T03:01:05;99089.78;;;2.76;74.34
13476;BME280;6810;63.824;20.288;2024-03-23T03:03:52;99085.44;;;2.75;74.52
13476;BME280;6810;63.824;20.288;2024-03-23T03:06:37;99063.59;;;2.57;74.74
13476;BME280;6810;63.824;20.288;2024-03-23T03:09:24;99078.56;;;2.72;74.73
13476;BME280;6810;63.824;20.288;2024-03-23T03:11:50;99083.81;;;2.72;73.89
13476;BME280;6810;63.824;20.288;2024-03-23T03:14:16;99083.06;;;2.70;74.07
13476;BME280;6810;63.824;20.288;2024-03-23T03:17:02;99087.38;;;2.71;74.30
13476;BME280;6810;63.824;20.288;2024-03-23T03:19:48;99090.94;;;2.70;74.26
13476;BME280;6810;63.824;20.288;2024-03-23T03:22:34;99094.50;;;2.69;74.31
13476;BME280;6810;63.824;20.288;2024-03-23T03:25:20;99095.44;;;2.68;73.62
13476;BME280;6810;63.824;20.288;2024-03-23T03:28:06;99093.66;;;2.69;74.61
13476;BME280;6810;63.824;20.288;2024-03-23T03:30:52;99095.44;;;2.68;74.85
13476;BME280;6810;63.824;20.288;2024-03-23T03:33:38;99090.25;;;2.67;73.89
13476;BME280;6810;63.824;20.288;2024-03-23T03:36:24;99071.47;;;2.57;74.34
13476;BME280;6810;63.824;20.288;2024-03-23T03:39:10;99086.03;;;2.64;74.37
13476;BME280;6810;63.824;20.288;2024-03-23T03:41:56;99043.13;;;2.47;73.65
13476;BME280;6810;63.824;20.288;2024-03-23T03:44:42;99074.72;;;2.62;74.31
13476;BME280;6810;63.824;20.288;2024-03-23T03:47:28;99081.66;;;2.63;74.94
13476;BME280;6810;63.824;20.288;2024-03-23T03:50:14;99081.66;;;2.63;73.69
13476;BME280;6810;63.824;20.288;2024-03-23T03:53:01;99086.09;;;2.63;74.92
13476;BME280;6810;63.824;20.288;2024-03-23T03:55:47;99064.16;;;2.47;74.58
13476;BME280;6810;63.824;20.288;2024-03-23T03:58:33;99081.75;;;2.62;74.80
13476;BME280;6810;63.824;20.288;2024-03-23T04:01:19;99049.56;;;2.41;74.42
13476;BME280;6810;63.824;20.288;2024-03-23T04:04:05;99091.53;;;2.60;74.28
13476;BME280;6810;63.824;20.288;2024-03-23T04:07:01;99075.38;;;2.50;74.16
13476;BME280;6810;63.824;20.288;2024-03-23T04:09:47;99090.56;;;2.61;74.08
13476;BME280;6810;63.824;20.288;2024-03-23T04:12:34;99081.91;;;2.59;74.92
13476;BME280;6810;63.824;20.288;2024-03-23T04:15:20;99083.63;;;2.60;74.30
13476;BME280;6810;63.824;20.288;2024-03-23T04:18:06;99085.41;;;2.59;74.21
13476;BME280;6810;63.824;20.288;2024-03-23T04:20:52;99082.78;;;2.59;74.91
13476;BME280;6810;63.824;20.288;2024-03-23T04:23:38;99086.25;;;2.60;74.89
13476;BME280;6810;63.824;20.288;2024-03-23T04:26:25;99086.25;;;2.60;74.50
13476;BME280;6810;63.824;20.288;2024-03-23T04:29:11;99084.53;;;2.59;74.91
13476;BME280;6810;63.824;20.288;2024-03-23T04:31:57;99092.44;;;2.59;74.15
13476;BME280;6810;63.824;20.288;2024-03-23T04:34:43;99091.59;;;2.58;73.97
13476;BME280;6810;63.824;20.288;2024-03-23T04:37:30;99086.34;;;2.58;74.94
13476;BME280;6810;63.824;20.288;2024-03-23T04:40:16;99088.97;;;2.58;75.01
13476;BME280;6810;63.824;20.288;2024-03-23T04:43:02;99088.09;;;2.58;74.14
13476;BME280;6810;63.824;20.288;2024-03-23T04:45:48;99097.75;;;2.57;74.97
13476;BME280;6810;63.824;20.288;2024-03-23T04:48:34;99092.50;;;2.57;74.91
13476;BME280;6810;63.824;20.288;2024-03-23T04:51:25;99042.47;;;2.26;74.76
13476;BME280;6810;63.824;20.288;2024-03-23T04:54:12;99103.88;;;2.58;74.92
13476;BME280;6810;63.824;20.288;2024-03-23T04:56:58;99090.19;;;2.51;74.81
13476;BME280;6810;63.824;20.288;2024-03-23T04:59:46;99096.00;;;2.58;74.85
13476;BME280;6810;63.824;20.288;2024-03-23T05:02:32;99096.00;;;2.58;73.92
13476;BME280;6810;63.824;20.288;2024-03-23T05:05:18;99085.63;;;2.55;74.89
13476;BME280;6810;63.824;20.288;2024-03-23T05:08:05;99094.22;;;2.58;74.69
13476;BME280;6810;63.824;20.288;2024-03-23T05:10:51;99101.19;;;2.59;74.77
13476;BME280;6810;63.824;20.288;2024-03-23T05:13:37;99096.78;;;2.60;75.04
13476;BME280;6810;63.824;20.288;2024-03-23T05:16:23;99102.03;;;2.60;74.80
13476;BME280;6810;63.824;20.288;2024-03-23T05:19:09;99104.66;;;2.60;73.99
13476;BME280;6810;63.824;20.288;2024-03-23T05:21:55;99101.19;;;2.59;74.74
13476;BME280;6810;63.824;20.288;2024-03-23T05:24:41;99108.13;;;2.60;74.98
13476;BME280;6810;63.824;20.288;2024-03-23T05:27:28;99100.22;;;2.60;74.99
13476;BME280;6810;63.824;20.288;2024-03-23T05:30:14;99104.59;;;2.61;74.49
13476;BME280;6810;63.824;20.288;2024-03-23T05:33:00;99110.66;;;2.62;74.50
13476;BME280;6810;63.824;20.288;2024-03-23T05:35:47;99103.72;;;2.61;75.18
13476;BME280;6810;63.824;20.288;2024-03-23T05:38:33;99110.66;;;2.62;74.87
13476;BME280;6810;63.824;20.288;2024-03-23T05:41:19;99108.91;;;2.62;75.04
13476;BME280;6810;63.824;20.288;2024-03-23T05:44:05;99109.75;;;2.63;74.18
13476;BME280;6810;63.824;20.288;2024-03-23T05:46:51;99113.22;;;2.63;74.90
13476;BME280;6810;63.824;20.288;2024-03-23T05:49:37;99109.69;;;2.64;75.16
13476;BME280;6810;63.824;20.288;2024-03-23T05:52:23;99109.69;;;2.64;74.92
13476;BME280;6810;63.824;20.288;2024-03-23T05:55:09;99109.53;;;2.67;74.65
13476;BME280;6810;63.824;20.288;2024-03-23T05:57:55;99116.38;;;2.70;74.84
13476;BME280;6810;63.824;20.288;2024-03-23T06:00:42;99085.41;;;2.59;74.32
13476;BME280;6810;63.824;20.288;2024-03-23T06:03:29;99109.19;;;2.73;75.29
13476;BME280;6810;63.824;20.288;2024-03-23T06:06:15;99115.22;;;2.75;74.67
13476;BME280;6810;63.824;20.288;2024-03-23T06:09:01;99114.31;;;2.76;75.23
13476;BME280;6810;63.824;20.288;2024-03-23T06:11:48;99115.03;;;2.78;73.74
13476;BME280;6810;63.824;20.288;2024-03-23T06:14:34;99115.13;;;2.77;75.15
13476;BME280;6810;63.824;20.288;2024-03-23T06:17:21;99122.69;;;2.83;75.21
13476;BME280;6810;63.824;20.288;2024-03-23T06:20:07;99131.38;;;2.85;74.85
13476;BME280;6810;63.824;20.288;2024-03-23T06:22:53;99134.69;;;2.88;74.07
13476;BME280;6810;63.824;20.288;2024-03-23T06:25:39;99111.44;;;2.81;75.31
13476;BME280;6810;63.824;20.288;2024-03-23T06:28:26;99131.75;;;2.94;74.96
13476;BME280;6810;63.824;20.288;2024-03-23T06:31:12;99128.09;;;2.97;74.52
13476;BME280;6810;63.824;20.288;2024-03-23T06:33:58;99141.94;;;3.00;73.89
13476;BME280;6810;63.824;20.288;2024-03-23T06:36:44;99144.31;;;3.05;74.02
13476;BME280;6810;63.824;20.288;2024-03-23T06:39:30;99139.75;;;3.08;74.51
13476;BME280;6810;63.824;20.288;2024-03-23T06:42:16;99147.41;;;3.13;73.81
13476;BME280;6810;63.824;20.288;2024-03-23T06:45:03;99139.25;;;3.17;74.02
13476;BME280;6810;63.824;20.288;2024-03-23T06:47:52;99158.38;;;3.21;74.51
13476;BME280;6810;63.824;20.288;2024-03-23T06:50:38;99141.56;;;3.23;74.89
13476;BME280;6810;63.824;20.288;2024-03-23T06:53:25;99156.00;;;3.32;74.01
13476;BME280;6810;63.824;20.288;2024-03-23T06:56:11;99153.97;;;3.37;74.71
13476;BME280;6810;63.824;20.288;2024-03-23T06:58:57;99155.50;;;3.41;74.16
13476;BME280;6810;63.824;20.288;2024-03-23T07:01:43;99152.59;;;3.45;74.50
13476;BME280;6810;63.824;20.288;2024-03-23T07:04:30;99157.53;;;3.51;73.71
13476;BME280;6810;63.824;20.288;2024-03-23T07:07:16;99152.44;;;3.48;73.65
13476;BME280;6810;63.824;20.288;2024-03-23T07:10:02;99165.13;;;3.58;74.06
13476;BME280;6810;63.824;20.288;2024-03-23T07:12:48;99166.47;;;3.65;74.36
13476;BME280;6810;63.824;20.288;2024-03-23T07:15:35;99179.47;;;3.68;74.81
13476;BME280;6810;63.824;20.288;2024-03-23T07:18:21;99185.44;;;3.71;74.82
13476;BME280;6810;63.824;20.288;2024-03-23T07:20:57;99141.91;;;3.48;73.86
13476;BME280;6810;63.824;20.288;2024-03-23T07:23:24;99189.50;;;3.77;73.70
13476;BME280;6810;63.824;20.288;2024-03-23T07:26:10;99192.84;;;3.80;73.25
13476;BME280;6810;63.824;20.288;2024-03-23T07:28:57;99181.69;;;3.75;74.38
13476;BME280;6810;63.824;20.288;2024-03-23T07:31:46;99200.47;;;3.85;74.64
13476;BME280;6810;63.824;20.288;2024-03-23T07:34:32;99207.34;;;3.87;74.60
13476;BME280;6810;63.824;20.288;2024-03-23T07:37:18;99204.81;;;3.86;74.69
13476;BME280;6810;63.824;20.288;2024-03-23T07:40:05;99207.19;;;3.90;73.17
13476;BME280;6810;63.824;20.288;2024-03-23T07:42:51;99209.75;;;3.92;74.51
13476;BME280;6810;63.824;20.288;2024-03-23T07:45:37;99214.84;;;3.95;73.58
13476;BME280;6810;63.824;20.288;2024-03-23T07:48:23;99214.84;;;3.95;73.65
13476;BME280;6810;63.824;20.288;2024-03-23T07:51:20;99220.63;;;4.01;73.16
13476;BME280;6810;63.824;20.288;2024-03-23T07:54:06;99231.00;;;4.04;73.94
13476;BME280;6810;63.824;20.288;2024-03-23T07:56:52;99230.81;;;4.07;73.88
13476;BME280;6810;63.824;20.288;2024-03-23T07:59:38;99241.19;;;4.10;73.63
13476;BME280;6810;63.824;20.288;2024-03-23T08:02:24;99242.81;;;4.13;74.62
13476;BME280;6810;63.824;20.288;2024-03-23T08:05:10;99229.31;;;4.03;73.26
13476;BME280;6810;63.824;20.288;2024-03-23T08:07:57;99251.31;;;4.18;73.12
13476;BME280;6810;63.824;20.288;2024-03-23T08:10:52;99254.81;;;4.18;72.82
13476;BME280;6810;63.824;20.288;2024-03-23T08:13:42;99253.03;;;4.19;73.69
13476;BME280;6810;63.824;20.288;2024-03-23T08:16:28;99246.97;;;4.17;72.97
13476;BME280;6810;63.824;20.288;2024-03-23T08:19:15;99255.75;;;4.17;73.85
13476;BME280;6810;63.824;20.288;2024-03-23T08:22:01;99264.41;;;4.19;73.64
13476;BME280;6810;63.824;20.288;2024-03-23T08:24:47;99261.84;;;4.18;73.81
13476;BME280;6810;63.824;20.288;2024-03-23T08:27:33;99257.63;;;4.15;72.93
13476;BME280;6810;63.824;20.288;2024-03-23T08:30:19;99273.19;;;4.20;72.82
13476;BME280;6810;63.824;20.288;2024-03-23T08:33:06;99275.81;;;4.20;72.55
13476;BME280;6810;63.824;20.288;2024-03-23T08:35:55;99272.31;;;4.19;72.75
13476;BME280;6810;63.824;20.288;2024-03-23T08:38:42;99223.69;;;3.94;73.07
13476;BME280;6810;63.824;20.288;2024-03-23T08:41:28;99259.56;;;4.12;73.20
13476;BME280;6810;63.824;20.288;2024-03-23T08:44:14;99286.19;;;4.23;73.80
13476;BME280;6810;63.824;20.288;2024-03-23T08:47:00;99291.38;;;4.24;73.73
13476;BME280;6810;63.824;20.288;2024-03-23T08:49:46;99281.84;;;4.22;73.02
13476;BME280;6810;63.824;20.288;2024-03-23T08:52:32;99295.53;;;4.28;73.51
13476;BME280;6810;63.824;20.288;2024-03-23T08:55:19;99292.91;;;4.28;72.96
13476;BME280;6810;63.824;20.288;2024-03-23T08:58:05;99295.44;;;4.30;71.97
13476;BME280;6810;63.824;20.288;2024-03-23T09:00:52;99279.22;;;4.22;72.11
13476;BME280;6810;63.824;20.288;2024-03-23T09:03:38;99310.59;;;4.42;73.38
13476;BME280;6810;63.824;20.288;2024-03-23T09:06:24;99303.34;;;4.45;71.64
13476;BME280;6810;63.824;20.288;2024-03-23T09:09:10;99317.06;;;4.52;72.24
13476;BME280;6810;63.824;20.288;2024-03-23T09:11:56;99306.25;;;4.56;72.20
13476;BME280;6810;63.824;20.288;2024-03-23T09:14:42;99316.38;;;4.64;71.31
13476;BME280;6810;63.824;20.288;2024-03-23T09:17:29;99333.78;;;4.66;72.29
13476;BME280;6810;63.824;20.288;2024-03-23T09:20:15;99321.63;;;4.64;72.01
13476;BME280;6810;63.824;20.288;2024-03-23T09:23:01;99322.84;;;4.58;70.67
13476;BME280;6810;63.824;20.288;2024-03-23T09:25:47;99330.69;;;4.60;70.22
13476;BME280;6810;63.824;20.288;2024-03-23T09:28:33;99306.84;;;4.46;70.93
13476;BME280;6810;63.824;20.288;2024-03-23T09:31:20;99335.53;;;4.52;70.23
13476;BME280;6810;63.824;20.288;2024-03-23T09:34:06;99331.34;;;4.48;71.61
13476;BME280;6810;63.824;20.288;2024-03-23T09:36:52;99339.25;;;4.48;71.28
13476;BME280;6810;63.824;20.288;2024-03-23T09:39:38;99323.19;;;4.37;70.48
13476;BME280;6810;63.824;20.288;2024-03-23T09:42:24;99333.31;;;4.29;70.96
13476;BME280;6810;63.824;20.288;2024-03-23T09:45:17;99348.53;;;4.39;70.16
13476;BME280;6810;63.824;20.288;2024-03-23T09:48:04;99357.66;;;4.34;69.82
13476;BME280;6810;63.824;20.288;2024-03-23T09:50:50;99357.66;;;4.34;70.67
13476;BME280;6810;63.824;20.288;2024-03-23T09:53:37;99331.25;;;4.18;70.58
13476;BME280;6810;63.824;20.288;2024-03-23T09:56:23;99359.44;;;4.33;70.53
13476;BME280;6810;63.824;20.288;2024-03-23T09:59:09;99361.97;;;4.35;70.58
13476;BME280;6810;63.824;20.288;2024-03-23T10:01:55;99364.63;;;4.35;69.64
13476;BME280;6810;63.824;20.288;2024-03-23T10:04:42;99327.31;;;4.10;70.66
13476;BME280;6810;63.824;20.288;2024-03-23T10:07:29;99379.41;;;4.37;69.49
13476;BME280;6810;63.824;20.288;2024-03-23T10:10:16;99379.41;;;4.37;69.96
13476;BME280;6810;63.824;20.288;2024-03-23T10:13:02;99384.50;;;4.40;69.36
13476;BME280;6810;63.824;20.288;2024-03-23T10:15:54;99384.44;;;4.42;70.60
13476;BME280;6810;63.824;20.288;2024-03-23T10:18:40;99402.72;;;4.45;69.48
13476;BME280;6810;63.824;20.288;2024-03-23T10:21:27;99400.00;;;4.46;69.54
13476;BME280;6810;63.824;20.288;2024-03-23T10:24:13;99392.78;;;4.50;69.31
13476;BME280;6810;63.824;20.288;2024-03-23T10:26:59;99395.66;;;4.45;70.07
13476;BME280;6810;63.824;20.288;2024-03-23T10:29:49;99399.78;;;4.51;69.20
13476;BME280;6810;63.824;20.288;2024-03-23T10:32:35;99395.34;;;4.51;69.73
13476;BME280;6810;63.824;20.288;2024-03-23T10:35:22;99383.53;;;4.43;69.36
13476;BME280;6810;63.824;20.288;2024-03-23T10:38:09;99414.75;;;4.50;70.18
13476;BME280;6810;63.824;20.288;2024-03-23T10:40:55;99408.59;;;4.50;68.72
13476;BME280;6810;63.824;20.288;2024-03-23T10:43:45;99408.59;;;4.50;69.88
13476;BME280;6810;63.824;20.288;2024-03-23T10:46:31;99413.88;;;4.50;69.49
13476;BME280;6810;63.824;20.288;2024-03-23T10:49:19;99421.81;;;4.50;69.70
13476;BME280;6810;63.824;20.288;2024-03-23T10:52:06;99410.47;;;4.48;69.39
13476;BME280;6810;63.824;20.288;2024-03-23T10:54:52;99419.31;;;4.47;69.25
13476;BME280;6810;63.824;20.288;2024-03-23T10:57:42;99421.81;;;4.50;69.15
13476;BME280;6810;63.824;20.288;2024-03-23T11:00:30;99434.91;;;4.51;69.03
13476;BME280;6810;63.824;20.288;2024-03-23T11:03:36;99422.75;;;4.49;68.67
13476;BME280;6810;63.824;20.288;2024-03-23T11:06:43;99436.38;;;4.57;68.56
13476;BME280;6810;63.824;20.288;2024-03-23T11:15:13;99431.69;;;4.62;69.25
13476;BME280;6810;63.824;20.288;2024-03-23T11:18:06;99447.44;;;4.63;68.74
13476;BME280;6810;63.824;20.288;2024-03-23T11:20:55;99443.88;;;4.64;68.71
13476;BME280;6810;63.824;20.288;2024-03-23T11:23:41;99440.19;;;4.67;68.86
13476;BME280;6810;63.824;20.288;2024-03-23T11:26:28;99450.25;;;4.76;67.86
13476;BME280;6810;63.824;20.288;2024-03-23T11:29:16;99443.19;;;4.76;68.02
13476;BME280;6810;63.824;20.288;2024-03-23T11:32:02;99450.59;;;4.85;69.13
13476;BME280;6810;63.824;20.288;2024-03-23T11:34:48;99452.97;;;4.90;67.93
13476;BME280;6810;63.824;20.288;2024-03-23T11:37:34;99446.94;;;4.88;67.86
13476;BME280;6810;63.824;20.288;2024-03-23T11:40:21;99445.22;;;4.87;68.93
13476;BME280;6810;63.824;20.288;2024-03-23T11:43:09;99417.97;;;4.71;68.53
13476;BME280;6810;63.824;20.288;2024-03-23T11:45:55;99459.03;;;4.92;68.35
13476;BME280;6810;63.824;20.288;2024-03-23T11:48:49;99475.44;;;4.97;68.26
13476;BME280;6810;63.824;20.288;2024-03-23T11:51:35;99471.03;;;4.97;67.79
13476;BME280;6810;63.824;20.288;2024-03-23T11:54:23;99468.41;;;4.97;68.04
13476;BME280;6810;63.824;20.288;2024-03-23T11:57:10;99481.59;;;4.97;67.26
13476;BME280;6810;63.824;20.288;2024-03-23T11:59:56;99471.38;;;4.91;67.83
13476;BME280;6810;63.824;20.288;2024-03-23T12:02:44;99484.31;;;4.96;67.13
13476;BME280;6810;63.824;20.288;2024-03-23T12:05:30;99416.28;;;4.54;67.05
13476;BME280;6810;63.824;20.288;2024-03-23T12:08:18;99487.81;;;4.96;67.19
13476;BME280;6810;63.824;20.288;2024-03-23T12:11:05;99491.28;;;4.97;67.23
13476;BME280;6810;63.824;20.288;2024-03-23T12:13:52;99487.75;;;4.98;67.89
13476;BME280;6810;63.824;20.288;2024-03-23T12:16:38;99491.97;;;5.00;67.25
13476;BME280;6810;63.824;20.288;2024-03-23T12:19:24;99493.34;;;5.07;67.89
13476;BME280;6810;63.824;20.288;2024-03-23T12:22:10;99501.59;;;5.17;67.26
13476;BME280;6810;63.824;20.288;2024-03-23T12:24:56;99496.84;;;5.23;67.79
13476;BME280;6810;63.824;20.288;2024-03-23T12:27:42;99498.00;;;5.33;67.23
13476;BME280;6810;63.824;20.288;2024-03-23T12:30:28;99502.84;;;5.41;67.06
13476;BME280;6810;63.824;20.288;2024-03-23T12:33:14;99501.06;;;5.42;66.90
13476;BME280;6810;63.824;20.288;2024-03-23T12:36:01;99500.03;;;5.44;67.03
13476;BME280;6810;63.824;20.288;2024-03-23T12:38:47;99501.75;;;5.45;67.75
13476;BME280;6810;63.824;20.288;2024-03-23T12:41:33;99506.63;;;5.37;67.52
13476;BME280;6810;63.824;20.288;2024-03-23T12:44:19;99510.88;;;5.39;67.54
13476;BME280;6810;63.824;20.288;2024-03-23T12:47:05;99516.41;;;5.35;67.55
13476;BME280;6810;63.824;20.288;2024-03-23T12:49:51;99516.50;;;5.33;66.63
13476;BME280;6810;63.824;20.288;2024-03-23T12:52:37;99480.66;;;5.14;66.26
13476;BME280;6810;63.824;20.288;2024-03-23T12:55:23;99500.44;;;5.22;67.64
13476;BME280;6810;63.824;20.288;2024-03-23T12:58:09;99493.69;;;5.17;66.12
13476;BME280;6810;63.824;20.288;2024-03-23T13:00:58;99522.81;;;5.31;66.92
13476;BME280;6810;63.824;20.288;2024-03-23T13:03:46;99526.50;;;5.28;65.93
13476;BME280;6810;63.824;20.288;2024-03-23T13:06:32;99517.19;;;5.21;66.46
13476;BME280;6810;63.824;20.288;2024-03-23T13:09:18;99528.53;;;5.23;66.15
13476;BME280;6810;63.824;20.288;2024-03-23T13:12:04;99511.72;;;5.09;66.84
13476;BME280;6810;63.824;20.288;2024-03-23T13:14:50;99530.75;;;5.15;66.90
13476;BME280;6810;63.824;20.288;2024-03-23T13:17:36;99507.91;;;4.99;66.38
13476;BME280;6810;63.824;20.288;2024-03-23T13:20:23;99536.44;;;5.08;66.57
13476;BME280;6810;63.824;20.288;2024-03-23T13:22:49;99537.66;;;5.02;65.83
13476;BME280;6810;63.824;20.288;2024-03-23T13:25:17;99539.59;;;4.99;65.61
13476;BME280;6810;63.824;20.288;2024-03-23T13:28:03;99537.22;;;4.94;66.68
13476;BME280;6810;63.824;20.288;2024-03-23T13:30:53;99529.28;;;4.94;66.09
13476;BME280;6810;63.824;20.288;2024-03-23T13:33:39;99545.81;;;4.98;65.39
13476;BME280;6810;63.824;20.288;2024-03-23T13:36:26;99534.47;;;4.96;66.65
13476;BME280;6810;63.824;20.288;2024-03-23T13:39:13;99543.34;;;4.95;65.90
13476;BME280;6810;63.824;20.288;2024-03-23T13:41:59;99547.31;;;4.86;65.39
13476;BME280;6810;63.824;20.288;2024-03-23T13:44:45;99551.59;;;4.89;65.44
13476;BME280;6810;63.824;20.288;2024-03-23T13:47:31;99551.78;;;4.86;66.56
13476;BME280;6810;63.824;20.288;2024-03-23T13:50:18;99558.13;;;4.82;66.21
13476;BME280;6810;63.824;20.288;2024-03-23T13:53:04;99557.50;;;4.77;66.45
13476;BME280;6810;63.824;20.288;2024-03-23T13:55:50;99507.66;;;4.40;65.52
13476;BME280;6810;63.824;20.288;2024-03-23T13:58:36;99567.56;;;4.70;65.65
13476;BME280;6810;63.824;20.288;2024-03-23T14:01:22;99557.75;;;4.57;66.42
13476;BME280;6810;63.824;20.288;2024-03-23T14:04:08;99547.50;;;4.51;66.38
13476;BME280;6810;63.824;20.288;2024-03-23T14:06:54;99563.69;;;4.60;66.11
13476;BME280;6810;63.824;20.288;2024-03-23T14:09:40;99568.22;;;4.58;66.05
13476;BME280;6810;63.824;20.288;2024-03-23T14:12:26;99575.34;;;4.56;66.22
13476;BME280;6810;63.824;20.288;2024-03-23T14:15:12;99579.09;;;4.52;65.80
13476;BME280;6810;63.824;20.288;2024-03-23T14:17:59;99534.28;;;4.18;65.91
13476;BME280;6810;63.824;20.288;2024-03-23T14:20:45;99585.59;;;4.45;65.95
13476;BME280;6810;63.824;20.288;2024-03-23T14:23:31;99584.13;;;4.40;65.45
13476;BME280;6810;63.824;20.288;2024-03-23T14:26:20;99581.09;;;4.30;64.64
13476;BME280;6810;63.824;20.288;2024-03-23T14:29:06;99589.25;;;4.26;65.29
13476;BME280;6810;63.824;20.288;2024-03-23T14:31:52;99598.19;;;4.23;65.03
13476;BME280;6810;63.824;20.288;2024-03-23T14:34:38;99595.00;;;4.17;64.52
13476;BME280;6810;63.824;20.288;2024-03-23T14:37:25;99596.13;;;4.11;65.41
13476;BME280;6810;63.824;20.288;2024-03-23T14:40:11;99607.00;;;4.05;65.00
13476;BME280;6810;63.824;20.288;2024-03-23T14:42:57;99612.56;;;3.99;65.25
13476;BME280;6810;63.824;20.288;2024-03-23T14:48:51;99602.78;;;3.84;65.18
13476;BME280;6810;63.824;20.288;2024-03-23T14:51:37;99627.22;;;3.88;64.84
13476;BME280;6810;63.824;20.288;2024-03-23T14:54:24;99626.56;;;3.83;64.82
13476;BME280;6810;63.824;20.288;2024-03-23T14:57:10;99619.25;;;3.71;65.54
13476;BME280;6810;63.824;20.288;2024-03-23T14:59:56;99630.59;;;3.73;64.63
13476;BME280;6810;63.824;20.288;2024-03-23T15:02:42;99633.53;;;3.67;65.81
13476;BME280;6810;63.824;20.288;2024-03-23T15:05:28;99626.00;;;3.59;64.90
13476;BME280;6810;63.824;20.288;2024-03-23T15:08:15;99623.66;;;3.53;64.95
13476;BME280;6810;63.824;20.288;2024-03-23T15:11:01;99641.94;;;3.56;65.83
13476;BME280;6810;63.824;20.288;2024-03-23T15:13:49;99626.75;;;3.42;65.46
13476;BME280;6810;63.824;20.288;2024-03-23T15:16:36;99644.84;;;3.50;65.02
13476;BME280;6810;63.824;20.288;2024-03-23T15:19:22;99635.66;;;3.40;65.63
13476;BME280;6810;63.824;20.288;2024-03-23T15:22:08;99645.03;;;3.45;64.78
13476;BME280;6810;63.824;20.288;2024-03-23T15:24:54;99646.91;;;3.43;64.85
13476;BME280;6810;63.824;20.288;2024-03-23T15:27:40;99657.47;;;3.43;65.76
13476;BME280;6810;63.824;20.288;2024-03-23T15:30:27;99659.28;;;3.41;64.82
13476;BME280;6810;63.824;20.288;2024-03-23T15:33:13;99655.03;;;3.39;66.11
13476;BME280;6810;63.824;20.288;2024-03-23T15:35:59;99665.78;;;3.34;65.52
13476;BME280;6810;63.824;20.288;2024-03-23T15:38:46;99664.91;;;3.34;65.04
13476;BME280;6810;63.824;20.288;2024-03-23T15:41:33;99668.50;;;3.33;65.57
13476;BME280;6810;63.824;20.288;2024-03-23T15:44:19;99611.47;;;2.95;64.89
13476;BME280;6810;63.824;20.288;2024-03-23T15:47:05;99674.88;;;3.27;65.43
13476;BME280;6810;63.824;20.288;2024-03-23T15:49:51;99663.56;;;3.25;65.85